Time,TemperatureF,DewpointF,PressureIn,WindDirection,WindDirectionDegrees,WindSpeedMPH,WindSpeedGustMPH,Humidity,HourlyPrecipIn,Conditions,Clouds,dailyrainin,SoftwareType,DateUTC
2013-05-23 00:01:00,77.4,72.9,29.97,SSW,201,0.0,0.0,86,0.00,,,0.00,Wunderground v.1.15,2013-05-23 04:01:00,
2013-05-23 00:03:00,77.3,72.8,29.96,SSW,201,0.0,0.0,86,0.00,,,0.00,Wunderground v.1.15,2013-05-23 04:03:00,
2013-05-23 00:04:00,77.3,72.8,29.96,SSW,201,0.0,0.0,86,0.00,,,0.00,Wunderground v.1.15,2013-05-23 04:04:00,
2013-05-23 00:07:00,77.2,72.7,29.96,SSW,201,0.0,0.0,86,0.00,,,0.00,Wunderground v.1.15,2013-05-23 04:07:00,
2013-05-23 00:09:00,77.1,72.6,29.96,SSW,200,0.0,0.0,86,0.00,,,0.00,Wunderground v.1.15,2013-05-23 04:09:00,
2013-05-23 00:14:00,77.0,72.8,29.96,SSW,200,0.0,0.0,87,0.00,,,0.00,Wunderground v.1.15,2013-05-23 04:14:00,
2013-05-23 00:20:00,77.1,72.9,29.96,SSW,204,0.0,0.0,87,0.00,,,0.00,Wunderground v.1.15,2013-05-23 04:20:00,
2013-05-23 00:25:00,77.0,72.8,29.96,SSW,204,0.0,0.0,87,0.00,,,0.00,Wunderground v.1.15,2013-05-23 04:25:00,
2013-05-23 00:30:00,76.8,72.6,29.96,SSW,203,0.0,0.0,87,0.00,,,0.00,Wunderground v.1.15,2013-05-23 04:30:00,
2013-05-23 00:36:00,76.8,73.0,29.96,SW,231,0.0,0.0,88,0.00,,,0.00,Wunderground v.1.15,2013-05-23 04:36:00,
2013-05-23 00:41:00,76.9,73.1,29.96,SW,223,0.0,0.0,88,0.00,,,0.00,Wunderground v.1.15,2013-05-23 04:41:00,
2013-05-23 00:46:00,76.9,72.7,29.95,SSW,208,0.0,0.0,87,0.00,,,0.00,Wunderground v.1.15,2013-05-23 04:46:00,
2013-05-23 00:51:00,76.8,72.6,29.95,SSW,211,0.0,0.0,87,0.00,,,0.00,Wunderground v.1.15,2013-05-23 04:51:00,
2013-05-23 00:56:00,76.8,73.0,29.95,SSW,208,0.0,0.0,88,0.00,,,0.00,Wunderground v.1.15,2013-05-23 04:56:00,
2013-05-23 01:02:00,76.8,73.0,29.95,SW,214,1.0,1.0,88,0.00,,,0.00,Wunderground v.1.15,2013-05-23 05:02:00,
2013-05-23 01:07:00,76.8,73.0,29.95,SW,225,0.0,1.0,88,0.00,,,0.00,Wunderground v.1.15,2013-05-23 05:07:00,
2013-05-23 01:12:00,77.0,73.2,29.95,SW,233,0.0,2.0,88,0.00,,,0.00,Wunderground v.1.15,2013-05-23 05:12:00,
2013-05-23 01:18:00,77.1,73.3,29.95,WSW,240,1.0,2.0,88,0.00,,,0.00,Wunderground v.1.15,2013-05-23 05:18:00,
2013-05-23 01:23:00,77.1,73.3,29.95,SW,219,3.0,3.0,88,0.00,,,0.00,Wunderground v.1.15,2013-05-23 05:23:00,
2013-05-23 01:28:00,77.1,73.3,29.95,SSW,212,2.0,3.0,88,0.00,,,0.00,Wunderground v.1.15,2013-05-23 05:28:00,
2013-05-23 01:33:00,77.0,73.5,29.95,South,179,0.0,3.0,89,0.00,,,0.00,Wunderground v.1.15,2013-05-23 05:33:00,
2013-05-23 01:38:00,77.0,73.5,29.94,SSW,211,0.0,3.0,89,0.00,,,0.00,Wunderground v.1.15,2013-05-23 05:38:00,
2013-05-23 01:44:00,76.9,73.4,29.94,SSW,207,2.0,2.0,89,0.00,,,0.00,Wunderground v.1.15,2013-05-23 05:44:00,
2013-05-23 01:50:00,76.9,73.7,29.94,West,259,1.0,1.0,90,0.00,,,0.00,Wunderground v.1.15,2013-05-23 05:50:00,
2013-05-23 01:55:00,76.9,73.7,29.94,SW,221,0.0,2.0,90,0.00,,,0.00,Wunderground v.1.15,2013-05-23 05:55:00,
2013-05-23 02:00:00,76.9,73.7,29.94,SW,225,0.0,1.0,90,0.00,,,0.00,Wunderground v.1.15,2013-05-23 06:00:00,
2013-05-23 02:05:00,76.9,73.7,29.94,SW,236,0.0,2.0,90,0.00,,,0.00,Wunderground v.1.15,2013-05-23 06:05:00,
2013-05-23 02:10:00,76.8,73.6,29.94,SW,214,0.0,1.0,90,0.00,,,0.00,Wunderground v.1.15,2013-05-23 06:10:00,
2013-05-23 02:16:00,76.7,73.5,29.94,SW,218,0.0,1.0,90,0.00,,,0.00,Wunderground v.1.15,2013-05-23 06:16:00,
2013-05-23 02:21:00,76.6,73.4,29.94,SW,232,0.0,1.0,90,0.00,,,0.00,Wunderground v.1.15,2013-05-23 06:21:00,
2013-05-23 02:26:00,76.5,73.3,29.94,SW,219,0.0,2.0,90,0.00,,,0.00,Wunderground v.1.15,2013-05-23 06:26:00,
2013-05-23 02:31:00,76.4,73.2,29.94,SW,228,0.0,0.0,90,0.00,,,0.00,Wunderground v.1.15,2013-05-23 06:31:00,
2013-05-23 02:36:00,76.2,73.1,29.94,SE,146,0.0,1.0,90,0.00,,,0.00,Wunderground v.1.15,2013-05-23 06:36:00,
2013-05-23 02:41:00,76.1,73.0,29.94,SSE,151,0.0,0.0,90,0.00,,,0.00,Wunderground v.1.15,2013-05-23 06:41:00,
2013-05-23 02:46:00,75.9,73.1,29.94,SE,136,0.0,1.0,91,0.00,,,0.00,Wunderground v.1.15,2013-05-23 06:46:00,
2013-05-23 02:51:00,75.8,73.0,29.94,SW,217,0.0,0.0,91,0.00,,,0.00,Wunderground v.1.15,2013-05-23 06:51:00,
2013-05-23 02:56:00,75.7,72.9,29.94,SSW,208,0.0,1.0,91,0.00,,,0.00,Wunderground v.1.15,2013-05-23 06:56:00,
2013-05-23 03:01:00,75.7,72.9,29.94,SSW,211,0.0,1.0,91,0.00,,,0.00,Wunderground v.1.15,2013-05-23 07:01:00,
2013-05-23 03:06:00,75.7,72.9,29.94,SW,225,0.0,1.0,91,0.00,,,0.00,Wunderground v.1.15,2013-05-23 07:06:00,
2013-05-23 03:11:00,75.5,72.7,29.94,SSW,207,0.0,0.0,91,0.00,,,0.00,Wunderground v.1.15,2013-05-23 07:11:00,
2013-05-23 03:16:00,75.4,72.6,29.94,SSE,155,0.0,1.0,91,0.00,,,0.00,Wunderground v.1.15,2013-05-23 07:16:00,
2013-05-23 03:21:00,75.3,72.5,29.94,WSW,242,0.0,1.0,91,0.00,,,0.00,Wunderground v.1.15,2013-05-23 07:21:00,
2013-05-23 03:26:00,75.3,72.5,29.94,SW,231,1.0,2.0,91,0.00,,,0.00,Wunderground v.1.15,2013-05-23 07:26:00,
2013-05-23 03:31:00,75.3,72.5,29.94,SW,233,0.0,0.0,91,0.00,,,0.00,Wunderground v.1.15,2013-05-23 07:31:00,
2013-05-23 03:36:00,75.3,72.5,29.94,SSW,212,0.0,1.0,91,0.00,,,0.00,Wunderground v.1.15,2013-05-23 07:36:00,
2013-05-23 03:41:00,75.2,72.4,29.93,West,271,1.0,1.0,91,0.00,,,0.00,Wunderground v.1.15,2013-05-23 07:41:00,
2013-05-23 03:46:00,75.3,72.5,29.93,WSW,256,2.0,2.0,91,0.00,,,0.00,Wunderground v.1.15,2013-05-23 07:46:00,
2013-05-23 03:52:00,75.4,72.6,29.93,WSW,240,0.0,1.0,91,0.00,,,0.00,Wunderground v.1.15,2013-05-23 07:52:00,
2013-05-23 03:57:00,75.5,72.7,29.94,WSW,245,0.0,1.0,91,0.00,,,0.00,Wunderground v.1.15,2013-05-23 07:57:00,
2013-05-23 04:02:00,75.5,72.7,29.94,WSW,257,0.0,1.0,91,0.00,,,0.00,Wunderground v.1.15,2013-05-23 08:02:00,
2013-05-23 04:07:00,75.7,73.2,29.94,WSW,255,0.0,2.0,92,0.00,,,0.00,Wunderground v.1.15,2013-05-23 08:07:00,
2013-05-23 04:12:00,75.7,72.9,29.94,West,270,1.0,1.0,91,0.00,,,0.00,Wunderground v.1.15,2013-05-23 08:12:00,
2013-05-23 04:17:00,75.8,73.3,29.94,West,266,0.0,2.0,92,0.00,,,0.00,Wunderground v.1.15,2013-05-23 08:17:00,
2013-05-23 04:22:00,76.0,73.5,29.94,West,280,0.0,1.0,92,0.00,,,0.00,Wunderground v.1.15,2013-05-23 08:22:00,
2013-05-23 04:27:00,76.1,73.3,29.94,WSW,250,0.0,1.0,91,0.00,,,0.00,Wunderground v.1.15,2013-05-23 08:27:00,
2013-05-23 04:32:00,76.1,73.3,29.94,West,267,0.0,0.0,91,0.00,,,0.00,Wunderground v.1.15,2013-05-23 08:32:00,
2013-05-23 04:37:00,76.1,73.3,29.95,West,267,0.0,0.0,91,0.00,,,0.00,Wunderground v.1.15,2013-05-23 08:37:00,
2013-05-23 04:42:00,76.0,73.2,29.95,West,262,0.0,0.0,91,0.00,,,0.00,Wunderground v.1.15,2013-05-23 08:42:00,
2013-05-23 04:47:00,75.9,73.1,29.95,SW,223,0.0,1.0,91,0.00,,,0.00,Wunderground v.1.15,2013-05-23 08:47:00,
2013-05-23 04:52:00,75.8,73.3,29.95,SW,236,0.0,0.0,92,0.00,,,0.00,Wunderground v.1.15,2013-05-23 08:52:00,
2013-05-23 04:57:00,75.8,73.3,29.95,West,259,0.0,4.0,92,0.00,,,0.00,Wunderground v.1.15,2013-05-23 08:57:00,
2013-05-23 05:02:00,75.9,73.4,29.95,West,262,0.0,1.0,92,0.00,,,0.00,Wunderground v.1.15,2013-05-23 09:02:00,
2013-05-23 05:07:00,75.9,73.4,29.95,WSW,249,0.0,2.0,92,0.00,,,0.00,Wunderground v.1.15,2013-05-23 09:07:00,
2013-05-23 05:12:00,75.9,73.4,29.95,WSW,256,0.0,0.0,92,0.00,,,0.00,Wunderground v.1.15,2013-05-23 09:12:00,
2013-05-23 05:17:00,75.7,72.9,29.95,WSW,255,0.0,0.0,91,0.00,,,0.00,Wunderground v.1.15,2013-05-23 09:17:00,
2013-05-23 05:22:00,75.5,72.7,29.95,WSW,256,0.0,0.0,91,0.00,,,0.00,Wunderground v.1.15,2013-05-23 09:22:00,
2013-05-23 05:27:00,75.2,72.7,29.96,SW,235,0.0,0.0,92,0.00,,,0.00,Wunderground v.1.15,2013-05-23 09:27:00,
2013-05-23 05:32:00,74.9,72.4,29.95,SW,235,0.0,0.0,92,0.00,,,0.00,Wunderground v.1.15,2013-05-23 09:32:00,
2013-05-23 05:37:00,74.6,72.1,29.95,SW,235,0.0,0.0,92,0.00,,,0.00,Wunderground v.1.15,2013-05-23 09:37:00,
2013-05-23 05:42:00,74.5,72.3,29.95,SW,234,0.0,0.0,93,0.00,,,0.00,Wunderground v.1.15,2013-05-23 09:42:00,
2013-05-23 05:47:00,74.3,72.1,29.96,SW,235,0.0,0.0,93,0.00,,,0.00,Wunderground v.1.15,2013-05-23 09:47:00,
2013-05-23 05:52:00,74.2,72.0,29.96,SW,235,0.0,0.0,93,0.00,,,0.00,Wunderground v.1.15,2013-05-23 09:52:00,
2013-05-23 05:57:00,74.2,72.4,29.96,SW,235,0.0,0.0,94,0.00,,,0.00,Wunderground v.1.15,2013-05-23 09:57:00,
2013-05-23 06:02:00,74.0,71.8,29.96,SW,235,0.0,0.0,93,0.00,,,0.00,Wunderground v.1.15,2013-05-23 10:02:00,
2013-05-23 06:07:00,73.9,72.1,29.96,SW,235,0.0,0.0,94,0.00,,,0.00,Wunderground v.1.15,2013-05-23 10:07:00,
2013-05-23 06:12:00,73.8,72.0,29.97,SW,235,0.0,0.0,94,0.00,,,0.00,Wunderground v.1.15,2013-05-23 10:12:00,
2013-05-23 06:17:00,73.8,72.0,29.97,SW,236,0.0,0.0,94,0.00,,,0.00,Wunderground v.1.15,2013-05-23 10:17:00,
2013-05-23 06:22:00,73.9,72.4,29.97,SW,235,0.0,0.0,95,0.00,,,0.00,Wunderground v.1.15,2013-05-23 10:22:00,
2013-05-23 06:27:00,73.9,72.4,29.97,SW,235,0.0,0.0,95,0.00,,,0.00,Wunderground v.1.15,2013-05-23 10:27:00,
2013-05-23 06:32:00,73.8,72.3,29.97,SW,235,0.0,0.0,95,0.00,,,0.00,Wunderground v.1.15,2013-05-23 10:32:00,
2013-05-23 06:37:00,73.8,72.3,29.97,SW,235,0.0,0.0,95,0.00,,,0.00,Wunderground v.1.15,2013-05-23 10:37:00,
2013-05-23 06:42:00,73.8,72.3,29.97,SW,235,0.0,0.0,95,0.00,,,0.00,Wunderground v.1.15,2013-05-23 10:42:00,
2013-05-23 06:47:00,73.9,72.4,29.98,SW,235,0.0,0.0,95,0.00,,,0.00,Wunderground v.1.15,2013-05-23 10:47:00,
2013-05-23 06:52:00,74.0,72.5,29.98,SW,235,0.0,0.0,95,0.00,,,0.00,Wunderground v.1.15,2013-05-23 10:52:00,
2013-05-23 06:57:00,74.0,72.5,29.98,SW,235,0.0,0.0,95,0.00,,,0.00,Wunderground v.1.15,2013-05-23 10:57:00,
2013-05-23 07:02:00,74.2,72.7,29.99,SW,235,0.0,0.0,95,0.00,,,0.00,Wunderground v.1.15,2013-05-23 11:02:00,
2013-05-23 07:07:00,74.4,72.9,29.99,SW,235,0.0,0.0,95,0.00,,,0.00,Wunderground v.1.15,2013-05-23 11:07:00,
2013-05-23 07:13:00,74.6,73.1,29.99,SW,236,0.0,0.0,95,0.00,,,0.00,Wunderground v.1.15,2013-05-23 11:13:00,
2013-05-23 07:18:00,74.9,73.4,30.00,SW,236,0.0,0.0,95,0.00,,,0.00,Wunderground v.1.15,2013-05-23 11:18:00,
2013-05-23 07:23:00,75.6,74.1,30.00,SW,236,0.0,0.0,95,0.00,,,0.00,Wunderground v.1.15,2013-05-23 11:23:00,
2013-05-23 07:28:00,76.1,74.6,30.00,SW,236,0.0,0.0,95,0.00,,,0.00,Wunderground v.1.15,2013-05-23 11:28:00,
2013-05-23 07:33:00,76.4,74.5,30.00,SW,236,0.0,0.0,94,0.00,,,0.00,Wunderground v.1.15,2013-05-23 11:33:00,
2013-05-23 07:38:00,76.6,74.7,30.00,West,260,0.0,0.0,94,0.00,,,0.00,Wunderground v.1.15,2013-05-23 11:38:00,
2013-05-23 07:44:00,76.8,74.6,30.00,West,266,0.0,2.0,93,0.00,,,0.00,Wunderground v.1.15,2013-05-23 11:44:00,
2013-05-23 07:49:00,77.3,74.8,30.01,West,266,0.0,2.0,92,0.00,,,0.00,Wunderground v.1.15,2013-05-23 11:49:00,
2013-05-23 07:54:00,77.7,74.9,30.01,West,271,0.0,2.0,91,0.00,,,0.00,Wunderground v.1.15,2013-05-23 11:54:00,
2013-05-23 07:59:00,78.0,75.2,30.01,West,264,0.0,4.0,91,0.00,,,0.00,Wunderground v.1.15,2013-05-23 11:59:00,
2013-05-23 08:04:00,78.3,75.1,30.01,WSW,257,1.0,3.0,90,0.00,,,0.00,Wunderground v.1.15,2013-05-23 12:04:00,
2013-05-23 08:09:00,78.7,75.5,30.01,NNW,338,0.0,5.0,90,0.00,,,0.00,Wunderground v.1.15,2013-05-23 12:09:00,
2013-05-23 08:14:00,79.0,75.1,30.01,West,280,1.0,2.0,88,0.00,,,0.00,Wunderground v.1.15,2013-05-23 12:14:00,
2013-05-23 08:19:00,79.1,75.2,30.01,West,274,0.0,4.0,88,0.00,,,0.00,Wunderground v.1.15,2013-05-23 12:19:00,
2013-05-23 08:24:00,79.5,75.6,30.02,West,279,0.0,1.0,88,0.00,,,0.00,Wunderground v.1.15,2013-05-23 12:24:00,
2013-05-23 08:29:00,79.8,75.6,30.02,West,274,2.0,3.0,87,0.00,,,0.00,Wunderground v.1.15,2013-05-23 12:29:00,
2013-05-23 08:34:00,80.0,75.4,30.02,West,271,1.0,3.0,86,0.00,,,0.00,Wunderground v.1.15,2013-05-23 12:34:00,
2013-05-23 08:39:00,80.3,75.4,30.02,West,269,0.0,3.0,85,0.00,,,0.00,Wunderground v.1.15,2013-05-23 12:39:00,
2013-05-23 08:44:00,80.6,75.7,30.02,West,269,1.0,2.0,85,0.00,,,0.00,Wunderground v.1.15,2013-05-23 12:44:00,
2013-05-23 08:49:00,80.7,75.8,30.02,West,264,0.0,4.0,85,0.00,,,0.00,Wunderground v.1.15,2013-05-23 12:49:00,
2013-05-23 08:54:00,80.8,75.5,30.02,West,266,2.0,4.0,84,0.00,,,0.00,Wunderground v.1.15,2013-05-23 12:54:00,
2013-05-23 08:59:00,80.8,75.9,30.02,WNW,286,1.0,7.0,85,0.00,,,0.00,Wunderground v.1.15,2013-05-23 12:59:00,
2013-05-23 09:04:00,81.1,75.8,30.02,WNW,289,0.0,3.0,84,0.00,,,0.00,Wunderground v.1.15,2013-05-23 13:04:00,
2013-05-23 09:09:00,81.0,75.7,30.02,West,272,2.0,6.0,84,0.00,,,0.00,Wunderground v.1.15,2013-05-23 13:09:00,
2013-05-23 09:14:00,81.0,75.7,30.02,WNW,288,0.0,6.0,84,0.00,,,0.00,Wunderground v.1.15,2013-05-23 13:14:00,
2013-05-23 09:19:00,81.1,75.8,30.02,West,263,0.0,6.0,84,0.00,,,0.00,Wunderground v.1.15,2013-05-23 13:19:00,
2013-05-23 09:24:00,81.2,75.5,30.02,West,278,3.0,6.0,83,0.00,,,0.00,Wunderground v.1.15,2013-05-23 13:24:00,
2013-05-23 09:29:00,81.6,75.9,30.02,West,279,1.0,7.0,83,0.00,,,0.00,Wunderground v.1.15,2013-05-23 13:29:00,
2013-05-23 09:34:00,81.9,76.2,30.02,West,275,4.0,4.0,83,0.00,,,0.00,Wunderground v.1.15,2013-05-23 13:34:00,
2013-05-23 09:39:00,81.7,76.0,30.02,NW,317,2.0,6.0,83,0.00,,,0.00,Wunderground v.1.15,2013-05-23 13:39:00,
2013-05-23 09:44:00,81.6,75.9,30.02,SW,236,0.0,5.0,83,0.00,,,0.00,Wunderground v.1.15,2013-05-23 13:44:00,
2013-05-23 09:49:00,81.9,75.9,30.02,NW,315,3.0,7.0,82,0.00,,,0.00,Wunderground v.1.15,2013-05-23 13:49:00,
2013-05-23 09:54:00,82.0,76.0,30.02,West,271,2.0,7.0,82,0.00,,,0.00,Wunderground v.1.15,2013-05-23 13:54:00,
2013-05-23 09:59:00,82.2,75.8,30.02,West,279,0.0,7.0,81,0.00,,,0.00,Wunderground v.1.15,2013-05-23 13:59:00,
2013-05-23 10:04:00,82.3,75.9,30.02,WSW,255,0.0,7.0,81,0.00,,,0.00,Wunderground v.1.15,2013-05-23 14:04:00,
2013-05-23 10:09:00,82.3,75.9,30.02,West,271,1.0,7.0,81,0.00,,,0.00,Wunderground v.1.15,2013-05-23 14:09:00,
2013-05-23 10:14:00,82.6,76.2,30.02,NW,308,2.0,6.0,81,0.00,,,0.00,Wunderground v.1.15,2013-05-23 14:14:00,
2013-05-23 10:19:00,83.0,76.2,30.02,West,264,0.0,6.0,80,0.00,,,0.00,Wunderground v.1.15,2013-05-23 14:19:00,
2013-05-23 10:24:00,83.5,76.7,30.02,NW,319,0.0,3.0,80,0.00,,,0.00,Wunderground v.1.15,2013-05-23 14:24:00,
2013-05-23 10:29:00,83.6,76.0,30.02,WNW,283,1.0,5.0,78,0.00,,,0.00,Wunderground v.1.15,2013-05-23 14:29:00,
2013-05-23 10:34:00,83.5,76.3,30.02,West,276,7.0,7.0,79,0.00,,,0.00,Wunderground v.1.15,2013-05-23 14:34:00,
2013-05-23 10:39:00,83.3,75.3,30.02,West,269,0.0,8.0,77,0.00,,,0.00,Wunderground v.1.15,2013-05-23 14:39:00,
2013-05-23 10:44:00,83.1,75.5,30.02,WNW,283,5.0,5.0,78,0.00,,,0.00,Wunderground v.1.15,2013-05-23 14:44:00,
2013-05-23 10:49:00,83.4,75.4,30.02,West,273,3.0,8.0,77,0.00,,,0.00,Wunderground v.1.15,2013-05-23 14:49:00,
2013-05-23 10:54:00,83.6,76.0,30.02,West,270,4.0,12.0,78,0.00,,,0.00,Wunderground v.1.15,2013-05-23 14:54:00,
2013-05-23 10:59:00,83.9,75.5,30.02,West,280,2.0,12.0,76,0.00,,,0.00,Wunderground v.1.15,2013-05-23 14:59:00,
2013-05-23 11:05:00,83.9,75.5,30.02,West,266,11.0,11.0,76,0.00,,,0.00,Wunderground v.1.15,2013-05-23 15:05:00,
2013-05-23 11:10:00,83.6,74.8,30.02,WNW,282,3.0,5.0,75,0.00,,,0.00,Wunderground v.1.15,2013-05-23 15:10:00,
2013-05-23 11:15:00,83.7,75.7,30.02,West,269,3.0,9.0,77,0.00,,,0.00,Wunderground v.1.15,2013-05-23 15:15:00,
2013-05-23 11:20:00,83.9,75.1,30.02,West,278,3.0,5.0,75,0.00,,,0.00,Wunderground v.1.15,2013-05-23 15:20:00,
2013-05-23 11:25:00,84.0,74.8,30.02,WSW,249,7.0,8.0,74,0.00,,,0.00,Wunderground v.1.15,2013-05-23 15:25:00,
2013-05-23 11:30:00,84.2,75.0,30.02,WNW,287,6.0,7.0,74,0.00,,,0.00,Wunderground v.1.15,2013-05-23 15:30:00,
2013-05-23 11:35:00,84.4,74.8,30.02,NW,309,3.0,10.0,73,0.00,,,0.00,Wunderground v.1.15,2013-05-23 15:35:00,
2013-05-23 11:40:00,84.8,74.8,30.02,WNW,297,5.0,5.0,72,0.00,,,0.00,Wunderground v.1.15,2013-05-23 15:40:00,
2013-05-23 11:45:00,84.8,74.3,30.02,West,259,8.0,9.0,71,0.00,,,0.00,Wunderground v.1.15,2013-05-23 15:45:00,
2013-05-23 11:50:00,84.8,73.5,30.02,West,274,4.0,6.0,69,0.00,,,0.00,Wunderground v.1.15,2013-05-23 15:50:00,
2013-05-23 11:55:00,85.4,74.9,30.02,WSW,257,2.0,8.0,71,0.00,,,0.00,Wunderground v.1.15,2013-05-23 15:55:00,
2013-05-23 12:00:00,85.5,75.0,30.03,West,267,3.0,3.0,71,0.00,,,0.00,Wunderground v.1.15,2013-05-23 16:00:00,
2013-05-23 12:05:00,85.6,73.4,30.02,WSW,258,4.0,10.0,67,0.00,,,0.00,Wunderground v.1.15,2013-05-23 16:05:00,
2013-05-23 12:10:00,85.9,73.7,30.02,West,263,7.0,11.0,67,0.00,,,0.00,Wunderground v.1.15,2013-05-23 16:10:00,
2013-05-23 12:15:00,86.0,73.3,30.02,WNW,297,1.0,11.0,66,0.00,,,0.00,Wunderground v.1.15,2013-05-23 16:15:00,
2013-05-23 12:20:00,86.3,73.1,30.02,West,267,7.0,11.0,65,0.00,,,0.00,Wunderground v.1.15,2013-05-23 16:20:00,
2013-05-23 12:25:00,86.0,72.9,30.02,WSW,253,9.0,11.0,65,0.00,,,0.00,Wunderground v.1.15,2013-05-23 16:25:00,
2013-05-23 12:30:00,86.4,73.2,30.02,WNW,293,4.0,9.0,65,0.00,,,0.00,Wunderground v.1.15,2013-05-23 16:30:00,
2013-05-23 12:35:00,86.6,71.5,30.02,NW,307,6.0,10.0,61,0.00,,,0.00,Wunderground v.1.15,2013-05-23 16:35:00,
2013-05-23 12:40:00,86.8,72.2,30.02,WSW,252,5.0,10.0,62,0.00,,,0.00,Wunderground v.1.15,2013-05-23 16:40:00,
2013-05-23 12:45:00,86.8,71.2,30.01,West,271,6.0,12.0,60,0.00,,,0.00,Wunderground v.1.15,2013-05-23 16:45:00,
2013-05-23 12:50:00,87.1,72.5,30.01,NNE,27,2.0,5.0,62,0.00,,,0.00,Wunderground v.1.15,2013-05-23 16:50:00,
2013-05-23 12:56:00,87.4,71.8,30.01,West,273,7.0,7.0,60,0.00,,,0.00,Wunderground v.1.15,2013-05-23 16:56:00,
2013-05-23 13:01:00,87.3,71.2,30.01,WNW,298,3.0,7.0,59,0.00,,,0.00,Wunderground v.1.15,2013-05-23 17:01:00,
2013-05-23 13:06:00,87.5,70.9,30.01,West,265,2.0,10.0,58,0.00,,,0.00,Wunderground v.1.15,2013-05-23 17:06:00,
2013-05-23 13:11:00,87.7,71.6,30.01,SW,231,0.0,5.0,59,0.00,,,0.00,Wunderground v.1.15,2013-05-23 17:11:00,
2013-05-23 13:16:00,88.1,70.9,30.01,WSW,258,3.0,6.0,57,0.00,,,0.00,Wunderground v.1.15,2013-05-23 17:16:00,
2013-05-23 13:21:00,88.5,72.3,30.01,NNW,338,3.0,4.0,59,0.00,,,0.00,Wunderground v.1.15,2013-05-23 17:21:00,
2013-05-23 13:26:00,87.9,71.3,30.01,WNW,284,5.0,11.0,58,0.00,,,0.00,Wunderground v.1.15,2013-05-23 17:26:00,
2013-05-23 13:31:00,87.8,71.2,30.01,WNW,300,4.0,5.0,58,0.00,,,0.00,Wunderground v.1.15,2013-05-23 17:31:00,
2013-05-23 13:36:00,87.7,70.1,30.01,West,267,5.0,9.0,56,0.00,,,0.00,Wunderground v.1.15,2013-05-23 17:36:00,
2013-05-23 13:41:00,87.6,70.0,30.00,West,271,9.0,11.0,56,0.00,,,0.00,Wunderground v.1.15,2013-05-23 17:41:00,
2013-05-23 13:46:00,87.8,70.1,30.00,West,273,5.0,11.0,56,0.00,,,0.00,Wunderground v.1.15,2013-05-23 17:46:00,
2013-05-23 13:51:00,88.3,70.1,30.00,West,281,4.0,5.0,55,0.00,,,0.00,Wunderground v.1.15,2013-05-23 17:51:00,
2013-05-23 13:56:00,88.7,70.5,30.00,WNW,298,3.0,6.0,55,0.00,,,0.00,Wunderground v.1.15,2013-05-23 17:56:00,
2013-05-23 14:01:00,89.0,69.6,30.00,West,264,4.0,8.0,53,0.00,,,0.00,Wunderground v.1.15,2013-05-23 18:01:00,
2013-05-23 14:06:00,88.7,69.4,30.00,WSW,258,9.0,12.0,53,0.00,,,0.00,Wunderground v.1.15,2013-05-23 18:06:00,
2013-05-23 14:11:00,88.6,69.3,30.00,West,264,4.0,6.0,53,0.00,,,0.00,Wunderground v.1.15,2013-05-23 18:11:00,
2013-05-23 14:16:00,88.5,69.7,30.00,NW,321,1.0,7.0,54,0.00,,,0.00,Wunderground v.1.15,2013-05-23 18:16:00,
2013-05-23 14:21:00,88.8,68.9,30.00,WSW,250,6.0,10.0,52,0.00,,,0.00,Wunderground v.1.15,2013-05-23 18:21:00,
2013-05-23 14:26:00,89.1,68.6,30.00,NNW,343,4.0,10.0,51,0.00,,,0.00,Wunderground v.1.15,2013-05-23 18:26:00,
2013-05-23 14:31:00,89.2,68.7,30.00,West,280,8.0,12.0,51,0.00,,,0.00,Wunderground v.1.15,2013-05-23 18:31:00,
2013-05-23 14:36:00,89.2,69.3,29.99,WNW,288,4.0,12.0,52,0.00,,,0.00,Wunderground v.1.15,2013-05-23 18:36:00,
2013-05-23 14:41:00,89.9,68.8,29.99,West,280,0.0,5.0,50,0.00,,,0.00,Wunderground v.1.15,2013-05-23 18:41:00,
2013-05-23 14:46:00,89.9,68.2,29.99,WSW,249,5.0,9.0,49,0.00,,,0.00,Wunderground v.1.15,2013-05-23 18:46:00,
2013-05-23 14:51:00,89.5,69.0,29.99,NW,320,3.0,4.0,51,0.00,,,0.00,Wunderground v.1.15,2013-05-23 18:51:00,
2013-05-23 14:56:00,89.5,69.0,29.99,West,273,3.0,8.0,51,0.00,,,0.00,Wunderground v.1.15,2013-05-23 18:56:00,
2013-05-23 15:01:00,89.9,69.3,29.99,WNW,295,3.0,5.0,51,0.00,,,0.00,Wunderground v.1.15,2013-05-23 19:01:00,
2013-05-23 15:06:00,90.4,69.2,29.98,NNW,333,1.0,5.0,50,0.00,,,0.00,Wunderground v.1.15,2013-05-23 19:06:00,
2013-05-23 15:11:00,90.0,68.3,29.98,WNW,293,4.0,9.0,49,0.00,,,0.00,Wunderground v.1.15,2013-05-23 19:11:00,
2013-05-23 15:16:00,89.9,68.8,29.98,WNW,302,1.0,9.0,50,0.00,,,0.00,Wunderground v.1.15,2013-05-23 19:16:00,
2013-05-23 15:22:00,90.5,68.7,29.97,WNW,298,1.0,2.0,49,0.00,,,0.00,Wunderground v.1.15,2013-05-23 19:22:00,
2013-05-23 15:27:00,91.2,70.0,29.97,ENE,61,2.0,4.0,50,0.00,,,0.00,Wunderground v.1.15,2013-05-23 19:27:00,
2013-05-23 15:32:00,91.8,68.7,29.97,NNW,333,0.0,3.0,47,0.00,,,0.00,Wunderground v.1.15,2013-05-23 19:32:00,
2013-05-23 15:37:00,91.5,68.4,29.97,NNW,332,1.0,8.0,47,0.00,,,0.00,Wunderground v.1.15,2013-05-23 19:37:00,
2013-05-23 15:42:00,91.5,69.0,29.97,NNE,30,3.0,4.0,48,0.00,,,0.00,Wunderground v.1.15,2013-05-23 19:42:00,
2013-05-23 15:47:00,91.3,70.1,29.97,WSW,252,2.0,7.0,50,0.00,,,0.00,Wunderground v.1.15,2013-05-23 19:47:00,
2013-05-23 15:52:00,91.1,69.3,29.96,NE,41,0.0,6.0,49,0.00,,,0.00,Wunderground v.1.15,2013-05-23 19:52:00,
2013-05-23 15:57:00,90.8,69.0,29.96,WNW,287,7.0,9.0,49,0.00,,,0.00,Wunderground v.1.15,2013-05-23 19:57:00,
2013-05-23 16:02:00,90.7,70.1,29.96,NNW,338,4.0,4.0,51,0.00,,,0.00,Wunderground v.1.15,2013-05-23 20:02:00,
2013-05-23 16:07:00,91.4,70.7,29.95,WNW,290,1.0,5.0,51,0.00,,,0.00,Wunderground v.1.15,2013-05-23 20:07:00,
2013-05-23 16:12:00,91.8,70.5,29.95,WNW,282,6.0,6.0,50,0.00,,,0.00,Wunderground v.1.15,2013-05-23 20:12:00,
2013-05-23 16:18:00,91.5,69.6,29.95,North,350,4.0,6.0,49,0.00,,,0.00,Wunderground v.1.15,2013-05-23 20:18:00,
2013-05-23 16:23:00,92.1,71.4,29.95,NNE,32,0.0,2.0,51,0.00,,,0.00,Wunderground v.1.15,2013-05-23 20:23:00,
2013-05-23 16:28:00,93.1,71.1,29.95,NNE,31,1.0,4.0,49,0.00,,,0.00,Wunderground v.1.15,2013-05-23 20:28:00,
2013-05-23 16:34:00,93.3,71.3,29.95,West,265,0.0,1.0,49,0.00,,,0.00,Wunderground v.1.15,2013-05-23 20:34:00,
2013-05-23 16:39:00,92.1,69.0,29.96,West,266,3.0,7.0,47,0.00,,,0.00,Wunderground v.1.15,2013-05-23 20:39:00,
2013-05-23 16:44:00,92.1,68.3,29.95,NE,37,0.0,4.0,46,0.00,,,0.00,Wunderground v.1.15,2013-05-23 20:44:00,
2013-05-23 16:49:00,92.4,69.9,29.95,NE,38,0.0,4.0,48,0.00,,,0.00,Wunderground v.1.15,2013-05-23 20:49:00,
2013-05-23 16:54:00,92.1,68.3,29.95,West,276,3.0,4.0,46,0.00,,,0.00,Wunderground v.1.15,2013-05-23 20:54:00,
2013-05-23 16:59:00,91.7,68.6,29.95,West,264,0.0,4.0,47,0.00,,,0.00,Wunderground v.1.15,2013-05-23 20:59:00,
2013-05-23 17:04:00,92.0,69.5,29.95,WNW,288,1.0,5.0,48,0.00,,,0.00,Wunderground v.1.15,2013-05-23 21:04:00,
2013-05-23 17:09:00,91.6,69.1,29.95,West,273,4.0,5.0,48,0.00,,,0.00,Wunderground v.1.15,2013-05-23 21:09:00,
2013-05-23 17:14:00,91.5,70.2,29.95,NNE,27,2.0,6.0,50,0.00,,,0.00,Wunderground v.1.15,2013-05-23 21:14:00,
2013-05-23 17:19:00,91.5,70.2,29.95,NNE,15,0.0,6.0,50,0.00,,,0.00,Wunderground v.1.15,2013-05-23 21:19:00,
2013-05-23 17:24:00,91.5,70.2,29.95,East,83,4.0,4.0,50,0.00,,,0.00,Wunderground v.1.15,2013-05-23 21:24:00,
2013-05-23 17:29:00,91.6,70.3,29.95,ENE,72,0.0,5.0,50,0.00,,,0.00,Wunderground v.1.15,2013-05-23 21:29:00,
2013-05-23 17:34:00,91.4,70.1,29.95,NE,50,0.0,4.0,50,0.00,,,0.00,Wunderground v.1.15,2013-05-23 21:34:00,
2013-05-23 17:39:00,91.2,70.5,29.95,NW,307,0.0,4.0,51,0.00,,,0.00,Wunderground v.1.15,2013-05-23 21:39:00,
2013-05-23 17:44:00,91.7,73.8,29.95,East,98,0.0,9.0,56,0.00,,,0.00,Wunderground v.1.15,2013-05-23 21:44:00,
2013-05-23 17:49:00,90.8,74.0,29.95,ESE,119,0.0,9.0,58,0.00,,,0.00,Wunderground v.1.15,2013-05-23 21:49:00,
2013-05-23 17:54:00,90.6,74.8,29.95,East,94,0.0,5.0,60,0.00,,,0.00,Wunderground v.1.15,2013-05-23 21:54:00,
2013-05-23 17:59:00,90.3,74.5,29.96,East,82,0.0,7.0,60,0.00,,,0.00,Wunderground v.1.15,2013-05-23 21:59:00,
2013-05-23 18:04:00,90.2,74.4,29.96,ESE,114,3.0,8.0,60,0.00,,,0.00,Wunderground v.1.15,2013-05-23 22:04:00,
2013-05-23 18:09:00,90.1,74.8,29.96,East,83,2.0,8.0,61,0.00,,,0.00,Wunderground v.1.15,2013-05-23 22:09:00,
2013-05-23 18:14:00,88.7,74.5,29.96,ENE,70,0.0,9.0,63,0.00,,,0.00,Wunderground v.1.15,2013-05-23 22:14:00,
2013-05-23 18:19:00,87.7,74.0,29.96,SE,128,4.0,9.0,64,0.00,,,0.00,Wunderground v.1.15,2013-05-23 22:19:00,
2013-05-23 18:24:00,87.2,74.0,29.96,SW,226,3.0,5.0,65,0.00,,,0.00,Wunderground v.1.15,2013-05-23 22:24:00,
2013-05-23 18:29:00,86.9,74.2,29.96,ESE,112,1.0,5.0,66,0.00,,,0.00,Wunderground v.1.15,2013-05-23 22:29:00,
2013-05-23 18:34:00,86.4,73.7,29.96,ESE,108,4.0,7.0,66,0.00,,,0.00,Wunderground v.1.15,2013-05-23 22:34:00,
2013-05-23 18:39:00,86.3,74.5,29.97,East,82,3.0,7.0,68,0.00,,,0.00,Wunderground v.1.15,2013-05-23 22:39:00,
2013-05-23 18:44:00,86.2,74.4,29.97,ESE,102,2.0,4.0,68,0.00,,,0.00,Wunderground v.1.15,2013-05-23 22:44:00,
2013-05-23 18:49:00,86.1,74.3,29.97,NE,39,0.0,4.0,68,0.00,,,0.00,Wunderground v.1.15,2013-05-23 22:49:00,
2013-05-23 18:54:00,86.0,74.2,29.96,ESE,115,0.0,3.0,68,0.00,,,0.00,Wunderground v.1.15,2013-05-23 22:54:00,
2013-05-23 18:59:00,85.7,73.9,29.96,East,82,4.0,8.0,68,0.00,,,0.00,Wunderground v.1.15,2013-05-23 22:59:00,
2013-05-23 19:04:00,85.6,73.8,29.97,SE,143,0.0,4.0,68,0.00,,,0.00,Wunderground v.1.15,2013-05-23 23:04:00,
2013-05-23 19:09:00,85.3,73.5,29.97,East,79,0.0,6.0,68,0.00,,,0.00,Wunderground v.1.15,2013-05-23 23:09:00,
2013-05-23 19:14:00,85.2,73.4,29.97,East,87,7.0,7.0,68,0.00,,,0.00,Wunderground v.1.15,2013-05-23 23:14:00,
2013-05-23 19:19:00,85.0,73.3,29.97,East,96,1.0,7.0,68,0.00,,,0.00,Wunderground v.1.15,2013-05-23 23:19:00,
2013-05-23 19:24:00,85.3,73.5,29.97,East,98,0.0,3.0,68,0.00,,,0.00,Wunderground v.1.15,2013-05-23 23:24:00,
2013-05-23 19:29:00,85.5,72.8,29.98,ENE,68,0.0,4.0,66,0.00,,,0.00,Wunderground v.1.15,2013-05-23 23:29:00,
2013-05-23 19:34:00,85.5,72.8,29.97,East,98,1.0,6.0,66,0.00,,,0.00,Wunderground v.1.15,2013-05-23 23:34:00,
2013-05-23 19:39:00,85.5,72.8,29.97,WSW,253,0.0,6.0,66,0.00,,,0.00,Wunderground v.1.15,2013-05-23 23:39:00,
2013-05-23 19:44:00,85.2,73.0,29.97,East,101,3.0,4.0,67,0.00,,,0.00,Wunderground v.1.15,2013-05-23 23:44:00,
2013-05-23 19:49:00,84.8,73.1,29.97,SSW,203,1.0,5.0,68,0.00,,,0.00,Wunderground v.1.15,2013-05-23 23:49:00,
2013-05-23 19:54:00,84.5,73.6,29.97,East,94,2.0,4.0,70,0.00,,,0.00,Wunderground v.1.15,2013-05-23 23:54:00,
2013-05-23 19:59:00,84.1,73.7,29.97,East,93,0.0,4.0,71,0.00,,,0.00,Wunderground v.1.15,2013-05-23 23:59:00,
2013-05-23 20:04:00,83.8,74.2,29.97,ENE,75,0.0,3.0,73,0.00,,,0.00,Wunderground v.1.15,2013-05-24 00:04:00,
2013-05-23 20:09:00,83.5,73.9,29.98,East,101,0.0,3.0,73,0.00,,,0.00,Wunderground v.1.15,2013-05-24 00:09:00,
2013-05-23 20:14:00,83.3,74.1,29.98,SE,145,2.0,4.0,74,0.00,,,0.00,Wunderground v.1.15,2013-05-24 00:14:00,
2013-05-23 20:19:00,83.1,74.4,29.98,ENE,75,2.0,4.0,75,0.00,,,0.00,Wunderground v.1.15,2013-05-24 00:19:00,
2013-05-23 20:24:00,83.0,74.3,29.98,ESE,112,1.0,4.0,75,0.00,,,0.00,Wunderground v.1.15,2013-05-24 00:24:00,
2013-05-23 20:29:00,82.9,74.2,29.99,SSE,165,0.0,4.0,75,0.00,,,0.00,Wunderground v.1.15,2013-05-24 00:29:00,
2013-05-23 20:34:00,82.8,74.5,29.99,ESE,108,0.0,3.0,76,0.00,,,0.00,Wunderground v.1.15,2013-05-24 00:34:00,
2013-05-23 20:39:00,82.6,74.3,29.99,SE,124,0.0,3.0,76,0.00,,,0.00,Wunderground v.1.15,2013-05-24 00:39:00,
2013-05-23 20:44:00,82.5,74.2,29.99,SSE,162,0.0,3.0,76,0.00,,,0.00,Wunderground v.1.15,2013-05-24 00:44:00,
2013-05-23 20:49:00,82.4,74.1,29.99,ESE,115,0.0,3.0,76,0.00,,,0.00,Wunderground v.1.15,2013-05-24 00:49:00,
2013-05-23 20:54:00,82.3,74.4,29.99,East,84,0.0,3.0,77,0.00,,,0.00,Wunderground v.1.15,2013-05-24 00:54:00,
2013-05-23 20:59:00,82.3,74.4,30.00,SE,146,0.0,3.0,77,0.00,,,0.00,Wunderground v.1.15,2013-05-24 00:59:00,
2013-05-23 21:04:00,82.2,74.7,30.00,SSE,165,0.0,1.0,78,0.00,,,0.00,Wunderground v.1.15,2013-05-24 01:04:00,
2013-05-23 21:09:00,82.1,74.9,29.99,ESE,116,0.0,2.0,79,0.00,,,0.00,Wunderground v.1.15,2013-05-24 01:09:00,
2013-05-23 21:14:00,82.1,75.7,30.00,East,94,0.0,4.0,81,0.00,,,0.00,Wunderground v.1.15,2013-05-24 01:14:00,
2013-05-23 21:19:00,82.0,75.6,30.00,ESE,122,0.0,4.0,81,0.00,,,0.00,Wunderground v.1.15,2013-05-24 01:19:00,
2013-05-23 21:24:00,82.0,76.0,30.00,ESE,104,0.0,4.0,82,0.00,,,0.00,Wunderground v.1.15,2013-05-24 01:24:00,
2013-05-23 21:29:00,81.9,75.9,30.00,ESE,104,1.0,4.0,82,0.00,,,0.00,Wunderground v.1.15,2013-05-24 01:29:00,
2013-05-23 21:34:00,81.9,76.2,30.00,East,92,0.0,2.0,83,0.00,,,0.00,Wunderground v.1.15,2013-05-24 01:34:00,
2013-05-23 21:39:00,81.8,76.1,30.00,East,89,0.0,2.0,83,0.00,,,0.00,Wunderground v.1.15,2013-05-24 01:39:00,
2013-05-23 21:44:00,81.7,76.4,30.00,SE,132,0.0,2.0,84,0.00,,,0.00,Wunderground v.1.15,2013-05-24 01:44:00,
2013-05-23 21:49:00,81.6,76.3,30.00,ESE,122,0.0,2.0,84,0.00,,,0.00,Wunderground v.1.15,2013-05-24 01:49:00,
2013-05-23 21:54:00,81.5,76.2,30.00,SE,133,0.0,1.0,84,0.00,,,0.00,Wunderground v.1.15,2013-05-24 01:54:00,
2013-05-23 21:59:00,81.5,76.6,30.00,East,91,0.0,2.0,85,0.00,,,0.00,Wunderground v.1.15,2013-05-24 01:59:00,
2013-05-23 22:04:00,81.4,76.5,30.00,South,181,0.0,2.0,85,0.00,,,0.00,Wunderground v.1.15,2013-05-24 02:04:00,
2013-05-23 22:09:00,81.3,76.4,30.00,ESE,117,0.0,2.0,85,0.00,,,0.00,Wunderground v.1.15,2013-05-24 02:09:00,
2013-05-23 22:14:00,81.4,76.5,30.01,East,101,0.0,2.0,85,0.00,,,0.00,Wunderground v.1.15,2013-05-24 02:14:00,
2013-05-23 22:19:00,81.4,76.5,30.01,East,84,0.0,2.0,85,0.00,,,0.00,Wunderground v.1.15,2013-05-24 02:19:00,
2013-05-23 22:24:00,81.3,76.4,30.01,East,84,0.0,1.0,85,0.00,,,0.00,Wunderground v.1.15,2013-05-24 02:24:00,
2013-05-23 22:29:00,81.1,76.5,30.01,East,88,0.0,1.0,86,0.00,,,0.00,Wunderground v.1.15,2013-05-24 02:29:00,
2013-05-23 22:34:00,81.0,76.4,30.01,ESE,103,0.0,1.0,86,0.00,,,0.00,Wunderground v.1.15,2013-05-24 02:34:00,
2013-05-23 22:39:00,81.0,76.4,30.01,ESE,118,0.0,2.0,86,0.00,,,0.00,Wunderground v.1.15,2013-05-24 02:39:00,
2013-05-23 22:44:00,81.0,76.4,30.01,East,84,0.0,2.0,86,0.00,,,0.00,Wunderground v.1.15,2013-05-24 02:44:00,
2013-05-23 22:49:00,81.0,76.4,30.01,East,86,0.0,2.0,86,0.00,,,0.00,Wunderground v.1.15,2013-05-24 02:49:00,
2013-05-23 22:54:00,80.9,76.3,30.01,East,86,0.0,0.0,86,0.00,,,0.00,Wunderground v.1.15,2013-05-24 02:54:00,
2013-05-23 22:59:00,80.8,76.6,30.01,East,86,0.0,0.0,87,0.00,,,0.00,Wunderground v.1.15,2013-05-24 02:59:00,
2013-05-23 23:04:00,80.6,76.4,30.02,East,86,0.0,0.0,87,0.00,,,0.00,Wunderground v.1.15,2013-05-24 03:04:00,
2013-05-23 23:09:00,80.4,76.2,30.02,East,86,0.0,0.0,87,0.00,,,0.00,Wunderground v.1.15,2013-05-24 03:09:00,
2013-05-23 23:14:00,80.3,76.4,30.02,East,86,0.0,0.0,88,0.00,,,0.00,Wunderground v.1.15,2013-05-24 03:14:00,
2013-05-23 23:19:00,80.1,76.2,30.02,East,86,0.0,0.0,88,0.00,,,0.00,Wunderground v.1.15,2013-05-24 03:19:00,
2013-05-23 23:24:00,80.0,76.1,30.02,East,86,0.0,1.0,88,0.00,,,0.00,Wunderground v.1.15,2013-05-24 03:24:00,
2013-05-23 23:30:00,79.9,76.0,30.02,East,86,0.0,1.0,88,0.00,,,0.00,Wunderground v.1.15,2013-05-24 03:30:00,
2013-05-23 23:35:00,79.8,76.3,30.02,SE,131,0.0,1.0,89,0.00,,,0.00,Wunderground v.1.15,2013-05-24 03:35:00,
2013-05-23 23:39:00,79.8,76.3,30.01,SE,132,0.0,1.0,89,0.00,,,0.00,Wunderground v.1.15,2013-05-24 03:39:00,
2013-05-23 23:44:00,79.9,76.4,30.01,SW,228,0.0,0.0,89,0.00,,,0.00,Wunderground v.1.15,2013-05-24 03:44:00,
2013-05-23 23:49:00,79.8,76.3,30.01,SE,145,0.0,0.0,89,0.00,,,0.00,Wunderground v.1.15,2013-05-24 03:49:00,
2013-05-23 23:54:00,79.8,76.3,30.01,SE,146,0.0,0.0,89,0.00,,,0.00,Wunderground v.1.15,2013-05-24 03:54:00,
2013-05-23 23:59:00,79.7,76.2,30.01,SE,146,0.0,0.0,89,0.00,,,0.00,Wunderground v.1.15,2013-05-24 03:59:00,